sensor_id;sensor_type;location;lat;lon;timestamp;pressure;altitude;pressure_sealevel;temperature;humidity
37878;BME280;23715;53.652;8.516;2023-06-04T00:03:49;102478.85;;;13.64;100.00
37878;BME280;23715;53.652;8.516;2023-06-04T00:08:49;102463.77;;;13.54;100.00
37878;BME280;23715;53.652;8.516;2023-06-04T00:13:48;102452.57;;;13.35;100.00
37878;BME280;23715;53.652;8.516;2023-06-04T00:18:50;102451.33;;;13.33;100.00
37878;BME280;23715;53.652;8.516;2023-06-04T00:23:50;102453.59;;;13.26;100.00
37878;BME280;23715;53.652;8.516;2023-06-04T00:28:49;102459.28;;;12.91;100.00
37878;BME280;23715;53.652;8.516;2023-06-04T00:33:49;102461.94;;;12.65;100.00
37878;BME280;23715;53.652;8.516;2023-06-04T00:38:53;102463.46;;;12.56;100.00
37878;BME280;23715;53.652;8.516;2023-06-04T00:43:49;102457.80;;;12.34;100.00
37878;BME280;23715;53.652;8.516;2023-06-04T00:48:51;102460.56;;;12.12;100.00
37878;BME280;23715;53.652;8.516;2023-06-04T00:53:51;102469.45;;;12.14;100.00
37878;BME280;23715;53.652;8.516;2023-06-04T00:58:50;102470.98;;;12.31;100.00
37878;BME280;23715;53.652;8.516;2023-06-04T01:03:52;102474.08;;;12.32;100.00
37878;BME280;23715;53.652;8.516;2023-06-04T01:08:52;102467.97;;;12.56;100.00
37878;BME280;23715;53.652;8.516;2023-06-04T01:13:52;102460.59;;;12.52;100.00
37878;BME280;23715;53.652;8.516;2023-06-04T01:18:52;102457.50;;;12.31;100.00
37878;BME280;23715;53.652;8.516;2023-06-04T01:23:53;102463.33;;;11.83;100.00
37878;BME280;23715;53.652;8.516;2023-06-04T01:28:59;102465.58;;;11.77;100.00
37878;BME280;23715;53.652;8.516;2023-06-04T01:34:00;102464.02;;;11.94;100.00
37878;BME280;23715;53.652;8.516;2023-06-04T01:39:00;102459.78;;;11.97;100.00
37878;BME280;23715;53.652;8.516;2023-06-04T01:44:00;102465.86;;;11.72;100.00
37878;BME280;23715;53.652;8.516;2023-06-04T01:49:00;102468.78;;;11.62;100.00
37878;BME280;23715;53.652;8.516;2023-06-04T01:54:00;102463.16;;;11.72;100.00
37878;BME280;23715;53.652;8.516;2023-06-04T01:58:59;102462.50;;;11.68;100.00
37878;BME280;23715;53.652;8.516;2023-06-04T02:03:59;102474.67;;;11.54;100.00
37878;BME280;23715;53.652;8.516;2023-06-04T02:08:59;102468.60;;;11.58;100.00
37878;BME280;23715;53.652;8.516;2023-06-04T02:14:00;102465.82;;;11.45;100.00
37878;BME280;23715;53.652;8.516;2023-06-04T02:18:59;102478.91;;;11.15;100.00
37878;BME280;23715;53.652;8.516;2023-06-04T02:23:59;102478.91;;;11.15;100.00
37878;BME280;23715;53.652;8.516;2023-06-04T02:28:58;102488.83;;;11.22;100.00
37878;BME280;23715;53.652;8.516;2023-06-04T02:33:58;102491.78;;;10.96;100.00
37878;BME280;23715;53.652;8.516;2023-06-04T02:38:58;102502.09;;;11.10;100.00
37878;BME280;23715;53.652;8.516;2023-06-04T02:43:57;102504.88;;;11.16;100.00
37878;BME280;23715;53.652;8.516;2023-06-04T02:48:57;102504.30;;;11.47;100.00
37878;BME280;23715;53.652;8.516;2023-06-04T02:53:57;102508.65;;;11.42;100.00
37878;BME280;23715;53.652;8.516;2023-06-04T02:58:56;102506.89;;;11.34;100.00
37878;BME280;23715;53.652;8.516;2023-06-04T03:03:56;102505.38;;;11.44;100.00
37878;BME280;23715;53.652;8.516;2023-06-04T03:08:56;102499.77;;;11.55;100.00
37878;BME280;23715;53.652;8.516;2023-06-04T03:13:55;102495.64;;;11.49;100.00
37878;BME280;23715;53.652;8.516;2023-06-04T03:18:56;102505.74;;;11.60;100.00
37878;BME280;23715;53.652;8.516;2023-06-04T03:23:57;102516.15;;;11.44;100.00
37878;BME280;23715;53.652;8.516;2023-06-04T03:28:56;102518.72;;;11.60;100.00
37878;BME280;23715;53.652;8.516;2023-06-04T03:33:57;102519.89;;;11.63;100.00
37878;BME280;23715;53.652;8.516;2023-06-04T03:38:57;102518.33;;;11.73;100.00
37878;BME280;23715;53.652;8.516;2023-06-04T03:43:57;102518.61;;;11.98;100.00
37878;BME280;23715;53.652;8.516;2023-06-04T03:48:56;102510.34;;;11.94;100.00
37878;BME280;23715;53.652;8.516;2023-06-04T03:53:57;102520.86;;;12.18;100.00
37878;BME280;23715;53.652;8.516;2023-06-04T03:58:57;102522.95;;;12.27;100.00
37878;BME280;23715;53.652;8.516;2023-06-04T04:03:57;102510.41;;;12.34;100.00
37878;BME280;23715;53.652;8.516;2023-06-04T04:08:57;102514.89;;;12.40;100.00
37878;BME280;23715;53.652;8.516;2023-06-04T04:13:57;102509.62;;;12.52;100.00
37878;BME280;23715;53.652;8.516;2023-06-04T04:18:57;102499.50;;;12.55;100.00
37878;BME280;23715;53.652;8.516;2023-06-04T04:23:57;102504.34;;;12.70;100.00
37878;BME280;23715;53.652;8.516;2023-06-04T04:28:58;102498.80;;;12.92;100.00
37878;BME280;23715;53.652;8.516;2023-06-04T04:33:59;102497.41;;;13.12;100.00
37878;BME280;23715;53.652;8.516;2023-06-04T04:39:01;102489.55;;;13.34;100.00
37878;BME280;23715;53.652;8.516;2023-06-04T04:44:05;102482.09;;;13.38;100.00
37878;BME280;23715;53.652;8.516;2023-06-04T04:49:06;102483.84;;;13.44;100.00
37878;BME280;23715;53.652;8.516;2023-06-04T04:54:06;102482.73;;;13.60;100.00
37878;BME280;23715;53.652;8.516;2023-06-04T04:59:07;102485.09;;;13.77;100.00
37878;BME280;23715;53.652;8.516;2023-06-04T05:04:07;102477.19;;;13.93;100.00
37878;BME280;23715;53.652;8.516;2023-06-04T05:09:07;102487.61;;;14.10;100.00
37878;BME280;23715;53.652;8.516;2023-06-04T05:14:08;102479.58;;;14.27;100.00
37878;BME280;23715;53.652;8.516;2023-06-04T05:19:09;102477.30;;;14.45;100.00
37878;BME280;23715;53.652;8.516;2023-06-04T05:24:10;102474.83;;;14.72;100.00
37878;BME280;23715;53.652;8.516;2023-06-04T05:29:10;102475.26;;;14.95;100.00
37878;BME280;23715;53.652;8.516;2023-06-04T05:34:11;102469.22;;;14.92;100.00
37878;BME280;23715;53.652;8.516;2023-06-04T05:39:13;102469.58;;;14.98;100.00
37878;BME280;23715;53.652;8.516;2023-06-04T05:44:14;102462.59;;;15.18;100.00
37878;BME280;23715;53.652;8.516;2023-06-04T05:49:14;102467.78;;;15.21;100.00
37878;BME280;23715;53.652;8.516;2023-06-04T05:54:14;102459.88;;;15.35;100.00
37878;BME280;23715;53.652;8.516;2023-06-04T05:59:14;102462.08;;;15.53;100.00
37878;BME280;23715;53.652;8.516;2023-06-04T06:04:14;102462.91;;;15.70;100.00
37878;BME280;23715;53.652;8.516;2023-06-04T06:09:15;102460.71;;;15.64;100.00
37878;BME280;23715;53.652;8.516;2023-06-04T06:14:16;102463.94;;;15.58;100.00
37878;BME280;23715;53.652;8.516;2023-06-04T06:19:18;102459.23;;;15.83;100.00
37878;BME280;23715;53.652;8.516;2023-06-04T06:24:19;102458.81;;;15.98;100.00
37878;BME280;23715;53.652;8.516;2023-06-04T06:29:20;102453.24;;;16.06;100.00
37878;BME280;23715;53.652;8.516;2023-06-04T06:34:21;102456.56;;;16.09;100.00
37878;BME280;23715;53.652;8.516;2023-06-04T06:39:20;102457.30;;;16.11;100.00
37878;BME280;23715;53.652;8.516;2023-06-04T06:44:20;102462.42;;;16.20;100.00
37878;BME280;23715;53.652;8.516;2023-06-04T06:49:19;102460.41;;;16.39;100.00
37878;BME280;23715;53.652;8.516;2023-06-04T06:54:19;102460.70;;;16.51;100.00
37878;BME280;23715;53.652;8.516;2023-06-04T06:59:20;102460.72;;;16.46;100.00
37878;BME280;23715;53.652;8.516;2023-06-04T07:04:21;102465.88;;;16.54;100.00
37878;BME280;23715;53.652;8.516;2023-06-04T07:09:22;102464.84;;;16.61;100.00
37878;BME280;23715;53.652;8.516;2023-06-04T07:14:21;102465.60;;;17.00;100.00
37878;BME280;23715;53.652;8.516;2023-06-04T07:19:21;102462.50;;;17.20;100.00
37878;BME280;23715;53.652;8.516;2023-06-04T07:24:20;102455.37;;;16.97;100.00
37878;BME280;23715;53.652;8.516;2023-06-04T07:29:20;102450.05;;;16.75;100.00
37878;BME280;23715;53.652;8.516;2023-06-04T07:34:21;102455.66;;;16.94;100.00
37878;BME280;23715;53.652;8.516;2023-06-04T07:39:21;102447.85;;;17.11;100.00
37878;BME280;23715;53.652;8.516;2023-06-04T07:44:20;102450.86;;;17.08;100.00
37878;BME280;23715;53.652;8.516;2023-06-04T07:49:20;102453.48;;;17.19;100.00
37878;BME280;23715;53.652;8.516;2023-06-04T07:54:19;102444.45;;;17.18;100.00
37878;BME280;23715;53.652;8.516;2023-06-04T07:59:18;102434.02;;;17.39;100.00
37878;BME280;23715;53.652;8.516;2023-06-04T08:04:18;102426.18;;;17.46;100.00
37878;BME280;23715;53.652;8.516;2023-06-04T08:09:19;102434.79;;;17.35;100.00
37878;BME280;23715;53.652;8.516;2023-06-04T08:14:20;102434.55;;;17.23;100.00
37878;BME280;23715;53.652;8.516;2023-06-04T08:19:20;102432.27;;;17.44;100.00
37878;BME280;23715;53.652;8.516;2023-06-04T08:24:21;102443.13;;;16.82;100.00
37878;BME280;23715;53.652;8.516;2023-06-04T08:29:21;102447.85;;;16.95;100.00
37878;BME280;23715;53.652;8.516;2023-06-04T08:34:21;102452.27;;;17.02;100.00
37878;BME280;23715;53.652;8.516;2023-06-04T08:39:20;102456.50;;;16.74;100.00
37878;BME280;23715;53.652;8.516;2023-06-04T08:44:24;102460.37;;;16.92;100.00
37878;BME280;23715;53.652;8.516;2023-06-04T08:49:23;102464.16;;;17.11;100.00
37878;BME280;23715;53.652;8.516;2023-06-04T08:54:24;102462.62;;;17.33;100.00
37878;BME280;23715;53.652;8.516;2023-06-04T08:59:26;102468.78;;;17.35;100.00
37878;BME280;23715;53.652;8.516;2023-06-04T09:04:28;102471.97;;;17.25;100.00
37878;BME280;23715;53.652;8.516;2023-06-04T09:09:28;102469.31;;;16.83;100.00
37878;BME280;23715;53.652;8.516;2023-06-04T09:14:29;102467.80;;;17.21;100.00
37878;BME280;23715;53.652;8.516;2023-06-04T09:19:28;102477.99;;;16.98;100.00
37878;BME280;23715;53.652;8.516;2023-06-04T09:24:42;102471.93;;;17.15;100.00
37878;BME280;23715;53.652;8.516;2023-06-04T09:29:38;102476.94;;;17.35;100.00
37878;BME280;23715;53.652;8.516;2023-06-04T09:34:38;102476.77;;;16.96;100.00
37878;BME280;23715;53.652;8.516;2023-06-04T09:39:39;102478.30;;;17.20;100.00
37878;BME280;23715;53.652;8.516;2023-06-04T09:44:45;102488.63;;;17.11;100.00
37878;BME280;23715;53.652;8.516;2023-06-04T09:49:50;102489.34;;;17.34;100.00
37878;BME280;23715;53.652;8.516;2023-06-04T09:54:45;102485.08;;;17.51;100.00
37878;BME280;23715;53.652;8.516;2023-06-04T09:59:49;102490.64;;;17.55;100.00
37878;BME280;23715;53.652;8.516;2023-06-04T10:04:53;102503.32;;;17.45;100.00
37878;BME280;23715;53.652;8.516;2023-06-04T10:09:50;102504.51;;;17.21;100.00
37878;BME280;23715;53.652;8.516;2023-06-04T10:14:59;102506.41;;;17.15;100.00
37878;BME280;23715;53.652;8.516;2023-06-04T10:19:54;102511.80;;;17.00;100.00
37878;BME280;23715;53.652;8.516;2023-06-04T10:24:58;102500.32;;;17.63;100.00
37878;BME280;23715;53.652;8.516;2023-06-04T10:29:58;102507.28;;;17.87;100.00
37878;BME280;23715;53.652;8.516;2023-06-04T10:34:58;102511.39;;;17.41;100.00
37878;BME280;23715;53.652;8.516;2023-06-04T10:39:57;102511.95;;;17.34;100.00
37878;BME280;23715;53.652;8.516;2023-06-04T10:44:57;102506.12;;;17.33;100.00
37878;BME280;23715;53.652;8.516;2023-06-04T10:50:06;102511.94;;;17.19;100.00
37878;BME280;23715;53.652;8.516;2023-06-04T10:55:05;102516.02;;;17.34;100.00
37878;BME280;23715;53.652;8.516;2023-06-04T11:00:06;102510.03;;;17.25;100.00
37878;BME280;23715;53.652;8.516;2023-06-04T11:05:08;102518.59;;;17.00;100.00
37878;BME280;23715;53.652;8.516;2023-06-04T11:10:09;102522.08;;;17.02;100.00
37878;BME280;23715;53.652;8.516;2023-06-04T11:15:09;102515.65;;;17.33;100.00
37878;BME280;23715;53.652;8.516;2023-06-04T11:20:17;102519.05;;;17.26;100.00
37878;BME280;23715;53.652;8.516;2023-06-04T11:25:17;102512.20;;;17.16;100.00
37878;BME280;23715;53.652;8.516;2023-06-04T11:30:18;102518.98;;;17.01;100.00
37878;BME280;23715;53.652;8.516;2023-06-04T11:35:17;102516.11;;;17.23;100.00
37878;BME280;23715;53.652;8.516;2023-06-04T11:40:17;102511.22;;;17.48;100.00
37878;BME280;23715;53.652;8.516;2023-06-04T11:45:17;102504.67;;;17.91;100.00
37878;BME280;23715;53.652;8.516;2023-06-04T11:50:21;102504.08;;;17.87;100.00
37878;BME280;23715;53.652;8.516;2023-06-04T11:55:20;102518.28;;;17.91;100.00
37878;BME280;23715;53.652;8.516;2023-06-04T12:00:22;102511.76;;;17.57;100.00
37878;BME280;23715;53.652;8.516;2023-06-04T12:05:22;102514.62;;;17.40;100.00
37878;BME280;23715;53.652;8.516;2023-06-04T12:10:25;102524.10;;;16.88;100.00
37878;BME280;23715;53.652;8.516;2023-06-04T12:15:24;102513.69;;;17.45;100.00
37878;BME280;23715;53.652;8.516;2023-06-04T12:20:34;102516.54;;;17.74;100.00
37878;BME280;23715;53.652;8.516;2023-06-04T12:25:35;102516.59;;;17.84;100.00
37878;BME280;23715;53.652;8.516;2023-06-04T12:30:39;102501.95;;;17.91;100.00
37878;BME280;23715;53.652;8.516;2023-06-04T12:35:41;102509.17;;;17.81;100.00
37878;BME280;23715;53.652;8.516;2023-06-04T12:40:40;102513.81;;;17.74;100.00
37878;BME280;23715;53.652;8.516;2023-06-04T12:45:40;102512.91;;;17.80;100.00
37878;BME280;23715;53.652;8.516;2023-06-04T12:50:39;102509.62;;;17.61;100.00
37878;BME280;23715;53.652;8.516;2023-06-04T12:55:44;102501.86;;;17.56;100.00
37878;BME280;23715;53.652;8.516;2023-06-04T13:00:39;102512.02;;;17.54;100.00
37878;BME280;23715;53.652;8.516;2023-06-04T13:05:39;102512.88;;;17.54;100.00
37878;BME280;23715;53.652;8.516;2023-06-04T13:10:38;102510.74;;;17.58;100.00
37878;BME280;23715;53.652;8.516;2023-06-04T13:15:41;102514.61;;;17.55;100.00
37878;BME280;23715;53.652;8.516;2023-06-04T13:20:41;102508.25;;;17.45;100.00
37878;BME280;23715;53.652;8.516;2023-06-04T13:25:41;102502.16;;;17.93;100.00
37878;BME280;23715;53.652;8.516;2023-06-04T13:30:40;102495.28;;;17.74;100.00
37878;BME280;23715;53.652;8.516;2023-06-04T13:35:40;102506.05;;;17.29;100.00
37878;BME280;23715;53.652;8.516;2023-06-04T13:40:41;102500.22;;;17.34;100.00
37878;BME280;23715;53.652;8.516;2023-06-04T13:45:41;102506.41;;;17.15;100.00
37878;BME280;23715;53.652;8.516;2023-06-04T13:50:42;102501.33;;;17.31;100.00
37878;BME280;23715;53.652;8.516;2023-06-04T13:55:41;102499.80;;;17.39;100.00
37878;BME280;23715;53.652;8.516;2023-06-04T14:00:41;102489.30;;;17.65;100.00
37878;BME280;23715;53.652;8.516;2023-06-04T14:05:41;102502.20;;;17.47;100.00
37878;BME280;23715;53.652;8.516;2023-06-04T14:10:43;102502.86;;;17.24;100.00
37878;BME280;23715;53.652;8.516;2023-06-04T14:15:42;102502.67;;;17.01;100.00
37878;BME280;23715;53.652;8.516;2023-06-04T14:20:42;102499.23;;;17.45;100.00
37878;BME280;23715;53.652;8.516;2023-06-04T14:25:41;102495.41;;;17.47;100.00
37878;BME280;23715;53.652;8.516;2023-06-04T14:30:41;102488.69;;;17.51;100.00
37878;BME280;23715;53.652;8.516;2023-06-04T14:35:40;102491.42;;;17.21;100.00
37878;BME280;23715;53.652;8.516;2023-06-04T14:40:44;102494.45;;;17.27;100.00
37878;BME280;23715;53.652;8.516;2023-06-04T14:45:44;102484.23;;;17.75;100.00
37878;BME280;23715;53.652;8.516;2023-06-04T14:50:43;102481.24;;;18.04;100.00
37878;BME280;23715;53.652;8.516;2023-06-04T14:55:46;102481.24;;;18.04;100.00
37878;BME280;23715;53.652;8.516;2023-06-04T15:00:49;102487.91;;;18.05;100.00
37878;BME280;23715;53.652;8.516;2023-06-04T15:05:47;102482.07;;;18.29;100.00
37878;BME280;23715;53.652;8.516;2023-06-04T15:10:47;102483.42;;;18.20;100.00
37878;BME280;23715;53.652;8.516;2023-06-04T15:15:46;102472.53;;;18.10;100.00
37878;BME280;23715;53.652;8.516;2023-06-04T15:20:46;102484.61;;;17.76;100.00
37878;BME280;23715;53.652;8.516;2023-06-04T15:25:45;102467.11;;;17.69;100.00
37878;BME280;23715;53.652;8.516;2023-06-04T15:30:45;102466.92;;;17.76;100.00
37878;BME280;23715;53.652;8.516;2023-06-04T15:35:44;102467.92;;;17.91;100.00
37878;BME280;23715;53.652;8.516;2023-06-04T15:40:44;102467.56;;;18.00;100.00
37878;BME280;23715;53.652;8.516;2023-06-04T15:45:43;102471.34;;;17.52;100.00
37878;BME280;23715;53.652;8.516;2023-06-04T15:50:43;102474.28;;;17.70;100.00
37878;BME280;23715;53.652;8.516;2023-06-04T15:55:43;102473.78;;;17.96;100.00
37878;BME280;23715;53.652;8.516;2023-06-04T16:00:42;102470.58;;;17.56;100.00
37878;BME280;23715;53.652;8.516;2023-06-04T16:05:42;102465.99;;;17.72;100.00
37878;BME280;23715;53.652;8.516;2023-06-04T16:10:41;102470.60;;;17.66;100.00
37878;BME280;23715;53.652;8.516;2023-06-04T16:15:44;102469.22;;;17.56;100.00
37878;BME280;23715;53.652;8.516;2023-06-04T16:20:44;102471.33;;;17.27;100.00
37878;BME280;23715;53.652;8.516;2023-06-04T16:25:44;102467.06;;;17.50;100.00
37878;BME280;23715;53.652;8.516;2023-06-04T16:30:43;102464.62;;;17.31;100.00
37878;BME280;23715;53.652;8.516;2023-06-04T16:35:43;102454.28;;;17.41;100.00
37878;BME280;23715;53.652;8.516;2023-06-04T16:40:43;102455.53;;;17.77;100.00
37878;BME280;23715;53.652;8.516;2023-06-04T16:45:45;102452.73;;;18.08;100.00
37878;BME280;23715;53.652;8.516;2023-06-04T16:50:48;102442.20;;;17.64;100.00
37878;BME280;23715;53.652;8.516;2023-06-04T16:55:47;102441.22;;;17.50;100.00
37878;BME280;23715;53.652;8.516;2023-06-04T17:00:48;102447.27;;;17.63;100.00
37878;BME280;23715;53.652;8.516;2023-06-04T17:05:48;102444.98;;;17.43;100.00
37878;BME280;23715;53.652;8.516;2023-06-04T17:10:47;102450.17;;;16.85;100.00
37878;BME280;23715;53.652;8.516;2023-06-04T17:15:47;102450.64;;;17.21;100.00
37878;BME280;23715;53.652;8.516;2023-06-04T17:20:46;102457.48;;;16.94;100.00
37878;BME280;23715;53.652;8.516;2023-06-04T17:25:46;102454.72;;;16.84;100.00
37878;BME280;23715;53.652;8.516;2023-06-04T17:30:45;102449.93;;;16.97;100.00
37878;BME280;23715;53.652;8.516;2023-06-04T17:35:53;102458.42;;;17.04;100.00
37878;BME280;23715;53.652;8.516;2023-06-04T17:40:49;102457.41;;;17.05;100.00
37878;BME280;23715;53.652;8.516;2023-06-04T17:45:49;102462.96;;;16.88;100.00
37878;BME280;23715;53.652;8.516;2023-06-04T17:50:50;102464.93;;;16.65;100.00
37878;BME280;23715;53.652;8.516;2023-06-04T17:55:49;102458.28;;;16.90;100.00
37878;BME280;23715;53.652;8.516;2023-06-04T18:00:49;102463.13;;;16.87;100.00
37878;BME280;23715;53.652;8.516;2023-06-04T18:05:48;102464.52;;;16.54;100.00
37878;BME280;23715;53.652;8.516;2023-06-04T18:10:48;102466.56;;;16.41;100.00
37878;BME280;23715;53.652;8.516;2023-06-04T18:15:48;102468.72;;;16.53;100.00
37878;BME280;23715;53.652;8.516;2023-06-04T18:20:47;102457.13;;;16.72;100.00
37878;BME280;23715;53.652;8.516;2023-06-04T18:25:47;102460.33;;;16.98;100.00
37878;BME280;23715;53.652;8.516;2023-06-04T18:30:58;102468.19;;;16.59;100.00
37878;BME280;23715;53.652;8.516;2023-06-04T18:35:49;102450.84;;;17.89;100.00
37878;BME280;23715;53.652;8.516;2023-06-04T18:46:19;102442.48;;;17.96;100.00
37878;BME280;23715;53.652;8.516;2023-06-04T18:51:28;102441.36;;;18.28;100.00
37878;BME280;23715;53.652;8.516;2023-06-04T18:56:39;102448.20;;;17.43;100.00
37878;BME280;23715;53.652;8.516;2023-06-04T19:01:42;102448.82;;;17.00;100.00
37878;BME280;23715;53.652;8.516;2023-06-04T19:12:29;102463.55;;;15.79;100.00
37878;BME280;23715;53.652;8.516;2023-06-04T19:17:29;102463.03;;;15.69;100.00
37878;BME280;23715;53.652;8.516;2023-06-04T19:22:28;102478.47;;;15.17;100.00
37878;BME280;23715;53.652;8.516;2023-06-04T19:27:31;102468.75;;;15.37;100.00
37878;BME280;23715;53.652;8.516;2023-06-04T19:32:37;102482.54;;;15.34;100.00
37878;BME280;23715;53.652;8.516;2023-06-04T19:37:45;102483.55;;;15.33;100.00
37878;BME280;23715;53.652;8.516;2023-06-04T19:42:51;102492.16;;;15.16;100.00
37878;BME280;23715;53.652;8.516;2023-06-04T19:47:56;102495.23;;;15.17;100.00
37878;BME280;23715;53.652;8.516;2023-06-04T19:52:53;102498.16;;;14.91;100.00
37878;BME280;23715;53.652;8.516;2023-06-04T19:57:59;102497.05;;;14.94;100.00
37878;BME280;23715;53.652;8.516;2023-06-04T20:08:17;102495.89;;;14.44;100.00
37878;BME280;23715;53.652;8.516;2023-06-04T20:13:07;102501.09;;;14.23;100.00
37878;BME280;23715;53.652;8.516;2023-06-04T20:18:09;102504.98;;;13.76;100.00
37878;BME280;23715;53.652;8.516;2023-06-04T20:23:16;102510.17;;;13.79;100.00
37878;BME280;23715;53.652;8.516;2023-06-04T20:28:14;102522.58;;;13.51;100.00
37878;BME280;23715;53.652;8.516;2023-06-04T20:33:14;102519.41;;;13.64;100.00
37878;BME280;23715;53.652;8.516;2023-06-04T20:38:13;102521.87;;;13.36;100.00
37878;BME280;23715;53.652;8.516;2023-06-04T20:43:17;102527.83;;;13.21;100.00
37878;BME280;23715;53.652;8.516;2023-06-04T20:48:17;102535.50;;;13.01;100.00
37878;BME280;23715;53.652;8.516;2023-06-04T20:53:16;102543.30;;;13.44;100.00
37878;BME280;23715;53.652;8.516;2023-06-04T20:58:16;102536.73;;;13.16;100.00
37878;BME280;23715;53.652;8.516;2023-06-04T21:03:16;102540.55;;;13.39;100.00
37878;BME280;23715;53.652;8.516;2023-06-04T21:08:17;102537.95;;;13.37;100.00
37878;BME280;23715;53.652;8.516;2023-06-04T21:13:17;102538.41;;;13.24;100.00
37878;BME280;23715;53.652;8.516;2023-06-04T21:18:16;102536.30;;;13.22;100.00
37878;BME280;23715;53.652;8.516;2023-06-04T21:23:25;102528.77;;;13.07;100.00
37878;BME280;23715;53.652;8.516;2023-06-04T21:28:28;102532.45;;;12.93;100.00
37878;BME280;23715;53.652;8.516;2023-06-04T21:33:31;102537.42;;;12.86;100.00
37878;BME280;23715;53.652;8.516;2023-06-04T21:38:31;102532.13;;;12.85;100.00
37878;BME280;23715;53.652;8.516;2023-06-04T21:43:30;102528.83;;;12.87;100.00
37878;BME280;23715;53.652;8.516;2023-06-04T21:48:30;102532.13;;;12.85;100.00
37878;BME280;23715;53.652;8.516;2023-06-04T21:53:29;102528.85;;;13.00;100.00
37878;BME280;23715;53.652;8.516;2023-06-04T21:58:29;102537.28;;;13.21;100.00
37878;BME280;23715;53.652;8.516;2023-06-04T22:03:28;102532.52;;;13.12;100.00
37878;BME280;23715;53.652;8.516;2023-06-04T22:08:28;102533.02;;;13.11;100.00
37878;BME280;23715;53.652;8.516;2023-06-04T22:13:27;102529.48;;;13.36;100.00
37878;BME280;23715;53.652;8.516;2023-06-04T22:18:27;102527.18;;;13.56;100.00
37878;BME280;23715;53.652;8.516;2023-06-04T22:23:26;102527.38;;;13.47;100.00
37878;BME280;23715;53.652;8.516;2023-06-04T22:28:25;102527.18;;;13.56;100.00
37878;BME280;23715;53.652;8.516;2023-06-04T22:33:25;102525.93;;;13.54;100.00
37878;BME280;23715;53.652;8.516;2023-06-04T22:38:25;102525.52;;;13.47;100.00
37878;BME280;23715;53.652;8.516;2023-06-04T22:43:25;102533.44;;;13.18;100.00
37878;BME280;23715;53.652;8.516;2023-06-04T22:48:24;102539.59;;;12.74;100.00
37878;BME280;23715;53.652;8.516;2023-06-04T22:53:26;102551.24;;;12.62;100.00
37878;BME280;23715;53.652;8.516;2023-06-04T22:58:28;102556.91;;;12.64;100.00
37878;BME280;23715;53.652;8.516;2023-06-04T23:03:27;102552.95;;;12.63;100.00
37878;BME280;23715;53.652;8.516;2023-06-04T23:08:27;102554.13;;;12.59;100.00
37878;BME280;23715;53.652;8.516;2023-06-04T23:13:27;102549.08;;;12.47;100.00
37878;BME280;23715;53.652;8.516;2023-06-04T23:18:29;102552.69;;;12.60;100.00
37878;BME280;23715;53.652;8.516;2023-06-04T23:23:30;102554.82;;;12.55;100.00
37878;BME280;23715;53.652;8.516;2023-06-04T23:28:30;102551.48;;;12.44;100.00
37878;BME280;23715;53.652;8.516;2023-06-04T23:33:29;102558.26;;;12.97;100.00
37878;BME280;23715;53.652;8.516;2023-06-04T23:38:29;102555.52;;;13.37;100.00
37878;BME280;23715;53.652;8.516;2023-06-04T23:43:28;102555.25;;;13.47;100.00
37878;BME280;23715;53.652;8.516;2023-06-04T23:48:28;102563.47;;;13.46;100.00
37878;BME280;23715;53.652;8.516;2023-06-04T23:53:27;102560.66;;;13.47;100.00
37878;BME280;23715;53.652;8.516;2023-06-04T23:58:27;102550.70;;;13.48;100.00
